FXMM/MSU METAR and TAF weather

Enter ICAO airport designator
Station Type Date Time Source
FXMM METAR 2021/08/04 11:00 UTC NOAA

FXMM 041100Z 36004KT CAVOK 18/01 Q1029 NOSIG


Station Type Date Time Source
FXMM Decoded METAR 2021/08/04 11:00 UTC NOAA

Maseru / Moshoeshoe, Lesotho (FXMM) 29-27S 027-33E
Aug 04, 2021 - 07:00 AM EDT / 2021.08.04 1100 UTC
Wind: from the N (360 degrees) at 5 MPH (4 KT):0
Visibility: greater than 7 mile(s):0
Temperature: 64 F (18 C)
Dew Point: 33 F (1 C)
Relative Humidity: 31%
Pressure (altimeter): 30.39 in. Hg (1029 hPa)
ob: FXMM 041100Z 36004KT CAVOK 18/01 Q1029 NOSIG
cycle: 11

Station Type Date Time Source
FXMM TAF 2021/06/30 07:09 UTC NOAA

TAF TAF FXMM 300600Z 3007/3019 00000KT 9999 BKN035
BECMG 3008/3010 30012KT CAVOK

Example: see airport list